sensor_id;sensor_type;location;lat;lon;timestamp;pressure;altitude;pressure_sealevel;temperature;humidity
19594;BME280;9944;48.240;16.478;2023-04-27T00:02:38;100072.41;;;7.59;55.58
19594;BME280;9944;48.240;16.478;2023-04-27T00:06:42;100063.66;;;7.58;55.53
19594;BME280;9944;48.240;16.478;2023-04-27T00:10:46;100059.22;;;7.56;55.62
19594;BME280;9944;48.240;16.478;2023-04-27T00:14:50;100065.34;;;7.53;55.20
19594;BME280;9944;48.240;16.478;2023-04-27T00:18:53;100061.81;;;7.53;55.55
19594;BME280;9944;48.240;16.478;2023-04-27T00:22:56;100059.19;;;7.53;55.34
19594;BME280;9944;48.240;16.478;2023-04-27T00:27:00;100059.19;;;7.53;55.59
19594;BME280;9944;48.240;16.478;2023-04-27T00:31:04;100062.75;;;7.55;55.55
19594;BME280;9944;48.240;16.478;2023-04-27T00:35:08;100055.72;;;7.55;55.96
19594;BME280;9944;48.240;16.478;2023-04-27T00:39:11;100053.09;;;7.55;55.99
19594;BME280;9944;48.240;16.478;2023-04-27T00:43:15;100057.50;;;7.55;55.97
19594;BME280;9944;48.240;16.478;2023-04-27T00:47:18;100047.84;;;7.54;56.10
19594;BME280;9944;48.240;16.478;2023-04-27T00:51:22;100043.44;;;7.53;56.05
19594;BME280;9944;48.240;16.478;2023-04-27T00:55:29;100046.94;;;7.52;55.86
19594;BME280;9944;48.240;16.478;2023-04-27T00:59:33;100048.66;;;7.50;55.75
19594;BME280;9944;48.240;16.478;2023-04-27T01:03:36;100043.38;;;7.47;55.61
19594;BME280;9944;48.240;16.478;2023-04-27T01:07:41;100046.81;;;7.44;55.61
19594;BME280;9944;48.240;16.478;2023-04-27T01:11:44;100045.91;;;7.42;55.50
19594;BME280;9944;48.240;16.478;2023-04-27T01:15:49;100038.91;;;7.39;55.26
19594;BME280;9944;48.240;16.478;2023-04-27T01:19:52;100050.22;;;7.35;55.26
19594;BME280;9944;48.240;16.478;2023-04-27T01:23:58;100045.81;;;7.33;55.29
19594;BME280;9944;48.240;16.478;2023-04-27T01:28:01;100043.13;;;7.28;55.12
19594;BME280;9944;48.240;16.478;2023-04-27T01:32:04;100045.69;;;7.25;55.23
19594;BME280;9944;48.240;16.478;2023-04-27T01:36:08;100060.59;;;7.26;54.94
19594;BME280;9944;48.240;16.478;2023-04-27T01:40:14;100053.56;;;7.25;54.69
19594;BME280;9944;48.240;16.478;2023-04-27T01:44:17;100055.28;;;7.23;55.05
19594;BME280;9944;48.240;16.478;2023-04-27T01:48:21;100051.78;;;7.21;55.00
19594;BME280;9944;48.240;16.478;2023-04-27T01:52:24;100057.00;;;7.19;55.34
19594;BME280;9944;48.240;16.478;2023-04-27T01:56:30;100060.47;;;7.17;55.83
19594;BME280;9944;48.240;16.478;2023-04-27T02:00:33;100066.53;;;7.14;55.65
19594;BME280;9944;48.240;16.478;2023-04-27T02:04:36;100059.47;;;7.09;55.90
19594;BME280;9944;48.240;16.478;2023-04-27T02:08:40;100058.56;;;7.05;56.27
19594;BME280;9944;48.240;16.478;2023-04-27T02:12:44;100065.50;;;7.01;56.72
19594;BME280;9944;48.240;16.478;2023-04-27T02:16:48;100058.41;;;6.97;56.94
19594;BME280;9944;48.240;16.478;2023-04-27T02:20:52;100068.00;;;6.94;56.97
19594;BME280;9944;48.240;16.478;2023-04-27T02:24:55;100068.78;;;6.88;57.23
19594;BME280;9944;48.240;16.478;2023-04-27T02:28:59;100073.03;;;6.81;57.39
19594;BME280;9944;48.240;16.478;2023-04-27T02:33:04;100069.44;;;6.73;57.42
19594;BME280;9944;48.240;16.478;2023-04-27T02:37:07;100071.09;;;6.68;57.33
19594;BME280;9944;48.240;16.478;2023-04-27T02:41:11;100076.22;;;6.62;57.78
19594;BME280;9944;48.240;16.478;2023-04-27T02:45:15;100074.41;;;6.56;57.77
19594;BME280;9944;48.240;16.478;2023-04-27T02:49:18;100075.16;;;6.49;57.68
19594;BME280;9944;48.240;16.478;2023-04-27T02:53:22;100076.81;;;6.44;58.00
19594;BME280;9944;48.240;16.478;2023-04-27T02:57:26;100077.53;;;6.38;58.08
19594;BME280;9944;48.240;16.478;2023-04-27T03:01:30;100080.09;;;6.34;58.06
19594;BME280;9944;48.240;16.478;2023-04-27T03:05:34;100079.03;;;6.24;58.29
19594;BME280;9944;48.240;16.478;2023-04-27T03:09:38;100085.00;;;6.15;58.62
19594;BME280;9944;48.240;16.478;2023-04-27T03:13:41;100087.50;;;6.09;58.80
19594;BME280;9944;48.240;16.478;2023-04-27T03:17:45;100090.06;;;6.06;58.84
19594;BME280;9944;48.240;16.478;2023-04-27T03:21:49;100086.53;;;6.04;59.23
19594;BME280;9944;48.240;16.478;2023-04-27T03:25:52;100089.94;;;6.00;59.22
19594;BME280;9944;48.240;16.478;2023-04-27T03:29:55;100094.16;;;5.93;59.29
19594;BME280;9944;48.240;16.478;2023-04-27T03:33:59;100094.88;;;5.84;59.45
19594;BME280;9944;48.240;16.478;2023-04-27T03:38:02;100093.84;;;5.76;59.38
19594;BME280;9944;48.240;16.478;2023-04-27T03:42:06;100098.16;;;5.74;59.67
19594;BME280;9944;48.240;16.478;2023-04-27T03:46:09;100101.56;;;5.70;59.83
19594;BME280;9944;48.240;16.478;2023-04-27T03:50:13;100111.13;;;5.68;59.77
19594;BME280;9944;48.240;16.478;2023-04-27T03:54:17;100099.66;;;5.63;59.71
19594;BME280;9944;48.240;16.478;2023-04-27T03:58:20;100116.16;;;5.57;59.72
19594;BME280;9944;48.240;16.478;2023-04-27T04:02:41;100115.19;;;5.53;59.89
19594;BME280;9944;48.240;16.478;2023-04-27T04:06:46;100115.19;;;5.53;60.37
19594;BME280;9944;48.240;16.478;2023-04-27T04:10:49;100121.31;;;5.54;60.56
19594;BME280;9944;48.240;16.478;2023-04-27T04:14:52;100123.97;;;5.56;60.75
19594;BME280;9944;48.240;16.478;2023-04-27T04:18:56;100118.72;;;5.56;60.85
19594;BME280;9944;48.240;16.478;2023-04-27T04:23:01;100115.25;;;5.57;61.13
19594;BME280;9944;48.240;16.478;2023-04-27T04:27:04;100121.38;;;5.57;61.00
19594;BME280;9944;48.240;16.478;2023-04-27T04:31:07;100127.47;;;5.56;61.33
19594;BME280;9944;48.240;16.478;2023-04-27T04:35:10;100124.03;;;5.59;61.55
19594;BME280;9944;48.240;16.478;2023-04-27T04:39:15;100130.19;;;5.61;61.69
19594;BME280;9944;48.240;16.478;2023-04-27T04:43:18;100127.56;;;5.61;61.90
19594;BME280;9944;48.240;16.478;2023-04-27T04:47:22;100132.88;;;5.64;61.96
19594;BME280;9944;48.240;16.478;2023-04-27T04:51:26;100127.69;;;5.67;62.32
19594;BME280;9944;48.240;16.478;2023-04-27T04:55:30;100135.66;;;5.71;62.33
19594;BME280;9944;48.240;16.478;2023-04-27T04:59:37;100136.59;;;5.75;62.63
19594;BME280;9944;48.240;16.478;2023-04-27T05:03:40;100142.88;;;5.83;62.95
19594;BME280;9944;48.240;16.478;2023-04-27T05:07:43;100143.91;;;5.91;62.70
19594;BME280;9944;48.240;16.478;2023-04-27T05:11:48;100143.25;;;6.00;62.41
19594;BME280;9944;48.240;16.478;2023-04-27T05:15:51;100139.97;;;6.12;62.40
19594;BME280;9944;48.240;16.478;2023-04-27T05:19:54;100142.81;;;6.24;61.66
19594;BME280;9944;48.240;16.478;2023-04-27T05:23:58;100144.84;;;6.38;61.01
19594;BME280;9944;48.240;16.478;2023-04-27T05:28:03;100150.38;;;6.52;60.62
19594;BME280;9944;48.240;16.478;2023-04-27T05:32:06;100150.75;;;6.72;60.26
19594;BME280;9944;48.240;16.478;2023-04-27T05:36:10;100152.81;;;6.91;59.68
19594;BME280;9944;48.240;16.478;2023-04-27T05:40:14;100145.31;;;7.14;59.46
19594;BME280;9944;48.240;16.478;2023-04-27T05:44:18;100150.16;;;7.45;59.49
19594;BME280;9944;48.240;16.478;2023-04-27T05:48:21;100154.94;;;7.75;58.61
19594;BME280;9944;48.240;16.478;2023-04-27T05:52:24;100157.00;;;7.99;58.14
19594;BME280;9944;48.240;16.478;2023-04-27T05:56:31;100174.81;;;8.22;56.96
19594;BME280;9944;48.240;16.478;2023-04-27T06:00:36;100163.66;;;8.41;56.20
19594;BME280;9944;48.240;16.478;2023-04-27T06:04:39;100171.78;;;8.60;55.46
19594;BME280;9944;48.240;16.478;2023-04-27T06:08:42;100171.81;;;8.63;54.41
19594;BME280;9944;48.240;16.478;2023-04-27T06:12:45;100185.00;;;8.64;53.80
19594;BME280;9944;48.240;16.478;2023-04-27T06:16:50;100179.75;;;8.69;53.72
19594;BME280;9944;48.240;16.478;2023-04-27T06:20:57;100190.34;;;8.73;53.42
19594;BME280;9944;48.240;16.478;2023-04-27T06:25:02;100189.47;;;8.76;52.85
19594;BME280;9944;48.240;16.478;2023-04-27T06:29:05;100196.63;;;8.91;53.39
19594;BME280;9944;48.240;16.478;2023-04-27T06:33:10;100192.34;;;9.02;53.21
19594;BME280;9944;48.240;16.478;2023-04-27T06:37:13;100188.97;;;9.17;53.24
19594;BME280;9944;48.240;16.478;2023-04-27T06:41:17;100183.75;;;9.20;52.59
19594;BME280;9944;48.240;16.478;2023-04-27T06:45:20;100192.50;;;9.19;51.74
19594;BME280;9944;48.240;16.478;2023-04-27T06:49:25;100196.00;;;9.21;51.48
19594;BME280;9944;48.240;16.478;2023-04-27T06:53:29;100196.09;;;9.27;51.13
19594;BME280;9944;48.240;16.478;2023-04-27T06:57:32;100198.75;;;9.35;51.00
19594;BME280;9944;48.240;16.478;2023-04-27T07:01:36;100198.84;;;9.43;50.44
19594;BME280;9944;48.240;16.478;2023-04-27T07:05:40;100192.75;;;9.53;50.91
19594;BME280;9944;48.240;16.478;2023-04-27T07:09:43;100177.88;;;9.64;50.75
19594;BME280;9944;48.240;16.478;2023-04-27T07:13:47;100187.63;;;9.76;50.37
19594;BME280;9944;48.240;16.478;2023-04-27T07:17:50;100183.28;;;9.83;49.69
19594;BME280;9944;48.240;16.478;2023-04-27T07:21:56;100183.31;;;9.86;48.31
19594;BME280;9944;48.240;16.478;2023-04-27T07:25:59;100178.91;;;9.86;48.79
19594;BME280;9944;48.240;16.478;2023-04-27T07:30:04;100173.75;;;10.03;48.91
19594;BME280;9944;48.240;16.478;2023-04-27T07:34:09;100173.78;;;10.14;48.04
19594;BME280;9944;48.240;16.478;2023-04-27T07:38:14;100175.59;;;10.26;47.20
19594;BME280;9944;48.240;16.478;2023-04-27T07:42:18;100175.66;;;10.40;46.50
19594;BME280;9944;48.240;16.478;2023-04-27T07:46:23;100175.69;;;10.54;45.76
19594;BME280;9944;48.240;16.478;2023-04-27T07:50:27;100168.66;;;10.65;46.28
19594;BME280;9944;48.240;16.478;2023-04-27T07:54:32;100179.25;;;10.80;46.16
19594;BME280;9944;48.240;16.478;2023-04-27T07:58:35;100179.25;;;10.87;45.46
19594;BME280;9944;48.240;16.478;2023-04-27T08:02:38;100176.63;;;10.97;45.05
19594;BME280;9944;48.240;16.478;2023-04-27T08:06:42;100181.03;;;11.06;44.99
19594;BME280;9944;48.240;16.478;2023-04-27T08:10:49;100178.38;;;11.14;44.11
19594;BME280;9944;48.240;16.478;2023-04-27T08:14:52;100180.16;;;11.19;44.01
19594;BME280;9944;48.240;16.478;2023-04-27T08:18:55;100178.38;;;11.31;43.63
19594;BME280;9944;48.240;16.478;2023-04-27T08:23:00;100174.88;;;11.41;43.34
19594;BME280;9944;48.240;16.478;2023-04-27T08:27:06;100182.78;;;11.53;42.85
19594;BME280;9944;48.240;16.478;2023-04-27T08:31:09;100176.59;;;11.61;41.91
19594;BME280;9944;48.240;16.478;2023-04-27T08:35:12;100184.53;;;11.68;42.02
19594;BME280;9944;48.240;16.478;2023-04-27T08:39:15;100176.59;;;11.81;41.34
19594;BME280;9944;48.240;16.478;2023-04-27T08:43:20;100181.84;;;11.88;41.36
19594;BME280;9944;48.240;16.478;2023-04-27T08:47:23;100183.56;;;12.02;42.41
19594;BME280;9944;48.240;16.478;2023-04-27T08:51:42;100179.09;;;12.18;42.21
19594;BME280;9944;48.240;16.478;2023-04-27T08:55:45;100176.44;;;12.25;41.17
19594;BME280;9944;48.240;16.478;2023-04-27T08:59:58;100184.31;;;12.35;41.91
19594;BME280;9944;48.240;16.478;2023-04-27T09:04:01;100181.59;;;12.47;41.84
19594;BME280;9944;48.240;16.478;2023-04-27T09:08:07;100184.25;;;12.45;40.63
19594;BME280;9944;48.240;16.478;2023-04-27T09:12:16;100168.44;;;12.38;40.53
19594;BME280;9944;48.240;16.478;2023-04-27T09:16:23;100175.44;;;12.48;41.24
19594;BME280;9944;48.240;16.478;2023-04-27T09:20:27;100165.72;;;12.50;40.07
19594;BME280;9944;48.240;16.478;2023-04-27T09:24:30;100170.97;;;12.59;40.44
19594;BME280;9944;48.240;16.478;2023-04-27T09:28:36;100173.53;;;12.72;39.63
19594;BME280;9944;48.240;16.478;2023-04-27T09:32:51;100175.31;;;12.76;39.99
19594;BME280;9944;48.240;16.478;2023-04-27T09:36:55;100176.06;;;12.92;40.07
19594;BME280;9944;48.240;16.478;2023-04-27T09:40:59;100170.66;;;13.05;39.32
19594;BME280;9944;48.240;16.478;2023-04-27T09:45:03;100164.56;;;12.93;38.95
19594;BME280;9944;48.240;16.478;2023-04-27T09:49:10;100157.47;;;12.96;38.64
19594;BME280;9944;48.240;16.478;2023-04-27T09:53:17;100148.63;;;13.00;39.07
19594;BME280;9944;48.240;16.478;2023-04-27T09:57:31;100151.16;;;13.13;39.62
19594;BME280;9944;48.240;16.478;2023-04-27T10:01:39;100144.03;;;13.22;39.98
19594;BME280;9944;48.240;16.478;2023-04-27T10:06:20;100143.13;;;13.22;39.41
19594;BME280;9944;48.240;16.478;2023-04-27T10:10:41;100137.78;;;13.25;39.80
19594;BME280;9944;48.240;16.478;2023-04-27T10:14:49;100135.00;;;13.42;39.20
19594;BME280;9944;48.240;16.478;2023-04-27T10:18:53;100130.56;;;13.42;38.29
19594;BME280;9944;48.240;16.478;2023-04-27T10:22:59;100133.19;;;13.44;38.05
19594;BME280;9944;48.240;16.478;2023-04-27T10:27:05;100120.81;;;13.41;37.88
19594;BME280;9944;48.240;16.478;2023-04-27T10:31:09;100128.06;;;13.27;37.97
19594;BME280;9944;48.240;16.478;2023-04-27T10:35:12;100120.06;;;13.33;38.63
19594;BME280;9944;48.240;16.478;2023-04-27T10:39:18;100126.94;;;13.50;37.39
19594;BME280;9944;48.240;16.478;2023-04-27T10:43:36;100119.00;;;13.48;37.31
19594;BME280;9944;48.240;16.478;2023-04-27T10:47:40;100114.47;;;13.58;37.47
19594;BME280;9944;48.240;16.478;2023-04-27T10:51:44;100116.97;;;13.72;37.86
19594;BME280;9944;48.240;16.478;2023-04-27T10:55:53;100111.59;;;13.79;37.84
19594;BME280;9944;48.240;16.478;2023-04-27T10:59:57;100101.78;;;13.88;38.23
19594;BME280;9944;48.240;16.478;2023-04-27T11:04:14;100103.31;;;14.06;37.65
19594;BME280;9944;48.240;16.478;2023-04-27T11:08:19;100102.44;;;14.07;36.91
19594;BME280;9944;48.240;16.478;2023-04-27T11:12:22;100103.34;;;14.04;36.83
19594;BME280;9944;48.240;16.478;2023-04-27T11:16:26;100109.59;;;14.00;37.51
19594;BME280;9944;48.240;16.478;2023-04-27T11:20:32;100107.94;;;13.91;37.55
19594;BME280;9944;48.240;16.478;2023-04-27T11:24:36;100105.38;;;13.84;36.91
19594;BME280;9944;48.240;16.478;2023-04-27T11:28:39;100110.88;;;13.65;37.19
19594;BME280;9944;48.240;16.478;2023-04-27T11:32:43;100107.31;;;13.66;37.70
19594;BME280;9944;48.240;16.478;2023-04-27T11:36:56;100110.84;;;13.68;38.31
19594;BME280;9944;48.240;16.478;2023-04-27T11:41:17;100114.31;;;13.73;38.55
19594;BME280;9944;48.240;16.478;2023-04-27T11:45:24;100108.84;;;13.89;38.08
19594;BME280;9944;48.240;16.478;2023-04-27T11:49:28;100114.06;;;13.95;37.56
19594;BME280;9944;48.240;16.478;2023-04-27T11:53:33;100102.56;;;13.97;36.97
19594;BME280;9944;48.240;16.478;2023-04-27T11:57:37;100100.75;;;13.99;37.34
19594;BME280;9944;48.240;16.478;2023-04-27T12:01:41;100093.69;;;13.97;37.62
19594;BME280;9944;48.240;16.478;2023-04-27T12:05:47;100098.88;;;14.09;37.41
19594;BME280;9944;48.240;16.478;2023-04-27T12:09:52;100096.03;;;14.22;37.13
19594;BME280;9944;48.240;16.478;2023-04-27T12:13:55;100088.91;;;14.27;36.58
19594;BME280;9944;48.240;16.478;2023-04-27T12:17:59;100083.38;;;14.41;37.22
19594;BME280;9944;48.240;16.478;2023-04-27T12:22:02;100081.22;;;14.66;37.70
19594;BME280;9944;48.240;16.478;2023-04-27T12:26:07;100076.63;;;14.75;36.45
19594;BME280;9944;48.240;16.478;2023-04-27T12:30:10;100067.63;;;14.86;35.74
19594;BME280;9944;48.240;16.478;2023-04-27T12:34:14;100059.63;;;14.87;36.15
19594;BME280;9944;48.240;16.478;2023-04-27T12:38:17;100048.78;;;15.00;36.15
19594;BME280;9944;48.240;16.478;2023-04-27T12:42:22;100049.53;;;15.06;35.58
19594;BME280;9944;48.240;16.478;2023-04-27T12:46:25;100046.84;;;15.08;35.25
19594;BME280;9944;48.240;16.478;2023-04-27T12:50:29;100044.13;;;15.11;36.34
19594;BME280;9944;48.240;16.478;2023-04-27T12:54:32;100046.69;;;15.17;36.14
19594;BME280;9944;48.240;16.478;2023-04-27T12:58:36;100040.34;;;15.24;37.29
19594;BME280;9944;48.240;16.478;2023-04-27T13:02:40;100042.88;;;15.30;36.39
19594;BME280;9944;48.240;16.478;2023-04-27T13:06:44;100038.47;;;15.31;36.64
19594;BME280;9944;48.240;16.478;2023-04-27T13:10:47;100044.34;;;15.47;36.85
19594;BME280;9944;48.240;16.478;2023-04-27T13:14:52;100035.28;;;15.57;36.06
19594;BME280;9944;48.240;16.478;2023-04-27T13:18:55;100037.97;;;15.56;36.05
19594;BME280;9944;48.240;16.478;2023-04-27T13:22:58;100031.69;;;15.58;35.54
19594;BME280;9944;48.240;16.478;2023-04-27T13:27:01;100044.22;;;15.53;35.30
19594;BME280;9944;48.240;16.478;2023-04-27T13:31:06;100042.63;;;15.43;35.40
19594;BME280;9944;48.240;16.478;2023-04-27T13:35:09;100041.13;;;15.29;35.12
19594;BME280;9944;48.240;16.478;2023-04-27T13:39:16;100046.63;;;15.20;35.50
19594;BME280;9944;48.240;16.478;2023-04-27T13:43:19;100035.09;;;15.20;35.15
19594;BME280;9944;48.240;16.478;2023-04-27T13:47:23;100038.75;;;15.16;34.89
19594;BME280;9944;48.240;16.478;2023-04-27T13:51:27;100034.28;;;15.16;35.40
19594;BME280;9944;48.240;16.478;2023-04-27T13:55:30;100031.63;;;15.16;35.70
19594;BME280;9944;48.240;16.478;2023-04-27T13:59:33;100035.94;;;15.23;35.53
19594;BME280;9944;48.240;16.478;2023-04-27T14:03:38;100028.91;;;15.21;35.57
19594;BME280;9944;48.240;16.478;2023-04-27T14:07:44;100027.16;;;15.18;35.37
19594;BME280;9944;48.240;16.478;2023-04-27T14:11:50;100033.44;;;15.14;35.88
19594;BME280;9944;48.240;16.478;2023-04-27T14:15:58;100017.56;;;15.09;35.31
19594;BME280;9944;48.240;16.478;2023-04-27T14:20:02;100019.34;;;15.10;36.85
19594;BME280;9944;48.240;16.478;2023-04-27T14:24:07;100025.47;;;15.14;36.08
19594;BME280;9944;48.240;16.478;2023-04-27T14:28:10;100035.31;;;15.09;35.19
19594;BME280;9944;48.240;16.478;2023-04-27T14:32:15;100028.44;;;14.97;34.81
19594;BME280;9944;48.240;16.478;2023-04-27T14:36:20;100028.56;;;14.91;35.34
19594;BME280;9944;48.240;16.478;2023-04-27T14:40:23;100026.69;;;14.96;35.62
19594;BME280;9944;48.240;16.478;2023-04-27T14:44:26;100027.41;;;15.04;34.64
19594;BME280;9944;48.240;16.478;2023-04-27T14:48:29;100032.97;;;14.92;33.56
19594;BME280;9944;48.240;16.478;2023-04-27T14:52:34;100026.94;;;14.81;34.36
19594;BME280;9944;48.240;16.478;2023-04-27T14:56:38;100020.84;;;14.74;34.27
19594;BME280;9944;48.240;16.478;2023-04-27T15:00:41;100033.22;;;14.75;34.83
19594;BME280;9944;48.240;16.478;2023-04-27T15:04:44;100018.25;;;14.69;33.71
19594;BME280;9944;48.240;16.478;2023-04-27T15:08:48;100038.84;;;14.58;34.14
19594;BME280;9944;48.240;16.478;2023-04-27T15:12:52;100017.66;;;14.53;35.41
19594;BME280;9944;48.240;16.478;2023-04-27T15:16:55;100031.72;;;14.59;35.97
19594;BME280;9944;48.240;16.478;2023-04-27T15:20:58;100038.72;;;14.63;35.79
19594;BME280;9944;48.240;16.478;2023-04-27T15:25:03;100022.91;;;14.56;34.71
19594;BME280;9944;48.240;16.478;2023-04-27T15:29:06;100031.94;;;14.46;34.99
19594;BME280;9944;48.240;16.478;2023-04-27T15:33:09;100024.03;;;14.40;35.11
19594;BME280;9944;48.240;16.478;2023-04-27T15:37:13;100020.59;;;14.33;35.71
19594;BME280;9944;48.240;16.478;2023-04-27T15:41:17;100028.63;;;14.32;35.24
19594;BME280;9944;48.240;16.478;2023-04-27T15:45:21;100023.41;;;14.24;35.29
19594;BME280;9944;48.240;16.478;2023-04-27T15:49:24;100018.13;;;14.23;35.56
19594;BME280;9944;48.240;16.478;2023-04-27T15:53:27;100023.44;;;14.23;35.70
19594;BME280;9944;48.240;16.478;2023-04-27T15:57:31;100018.09;;;14.26;35.71
19594;BME280;9944;48.240;16.478;2023-04-27T16:01:34;100010.97;;;14.28;35.60
19594;BME280;9944;48.240;16.478;2023-04-27T16:05:37;100010.97;;;14.28;35.78
19594;BME280;9944;48.240;16.478;2023-04-27T16:09:41;100018.03;;;14.29;35.15
19594;BME280;9944;48.240;16.478;2023-04-27T16:13:46;100014.63;;;14.21;35.21
19594;BME280;9944;48.240;16.478;2023-04-27T16:17:49;100016.47;;;14.14;35.10
19594;BME280;9944;48.240;16.478;2023-04-27T16:21:52;100010.28;;;14.16;35.69
19594;BME280;9944;48.240;16.478;2023-04-27T16:25:55;100009.34;;;14.17;35.74
19594;BME280;9944;48.240;16.478;2023-04-27T16:29:59;100009.41;;;14.14;36.28
19594;BME280;9944;48.240;16.478;2023-04-27T16:34:02;100012.09;;;14.11;36.28
19594;BME280;9944;48.240;16.478;2023-04-27T16:38:05;100006.81;;;14.10;36.42
19594;BME280;9944;48.240;16.478;2023-04-27T16:42:09;100011.31;;;14.06;36.48
19594;BME280;9944;48.240;16.478;2023-04-27T16:46:15;100023.75;;;14.01;36.31
19594;BME280;9944;48.240;16.478;2023-04-27T16:50:19;100016.72;;;13.97;35.98
19594;BME280;9944;48.240;16.478;2023-04-27T16:54:22;100015.97;;;13.90;36.09
19594;BME280;9944;48.240;16.478;2023-04-27T16:58:25;100016.00;;;13.87;36.24
19594;BME280;9944;48.240;16.478;2023-04-27T17:02:29;100027.56;;;13.81;36.41
19594;BME280;9944;48.240;16.478;2023-04-27T17:06:33;100011.66;;;13.81;36.36
19594;BME280;9944;48.240;16.478;2023-04-27T17:10:36;100024.97;;;13.74;36.69
19594;BME280;9944;48.240;16.478;2023-04-27T17:14:39;100022.38;;;13.69;36.98
19594;BME280;9944;48.240;16.478;2023-04-27T17:18:44;100022.47;;;13.63;37.00
19594;BME280;9944;48.240;16.478;2023-04-27T17:22:48;100029.59;;;13.58;37.50
19594;BME280;9944;48.240;16.478;2023-04-27T17:26:51;100035.88;;;13.52;37.42
19594;BME280;9944;48.240;16.478;2023-04-27T17:30:54;100027.06;;;13.49;37.67
19594;BME280;9944;48.240;16.478;2023-04-27T17:34:59;100031.56;;;13.43;38.08
19594;BME280;9944;48.240;16.478;2023-04-27T17:39:02;100040.47;;;13.36;38.24
19594;BME280;9944;48.240;16.478;2023-04-27T17:43:06;100042.28;;;13.31;38.26
19594;BME280;9944;48.240;16.478;2023-04-27T17:47:11;100044.16;;;13.23;38.13
19594;BME280;9944;48.240;16.478;2023-04-27T17:51:16;100046.00;;;13.15;38.30
19594;BME280;9944;48.240;16.478;2023-04-27T17:55:19;100045.16;;;13.08;38.57
19594;BME280;9944;48.240;16.478;2023-04-27T17:59:22;100042.59;;;13.03;38.56
19594;BME280;9944;48.240;16.478;2023-04-27T18:03:26;100052.34;;;12.98;38.87
19594;BME280;9944;48.240;16.478;2023-04-27T18:07:33;100062.09;;;12.95;39.39
19594;BME280;9944;48.240;16.478;2023-04-27T18:11:37;100062.13;;;12.90;39.59
19594;BME280;9944;48.240;16.478;2023-04-27T18:15:40;100078.13;;;12.81;39.71
19594;BME280;9944;48.240;16.478;2023-04-27T18:19:43;100069.34;;;12.73;40.23
19594;BME280;9944;48.240;16.478;2023-04-27T18:23:48;100079.97;;;12.66;40.11
19594;BME280;9944;48.240;16.478;2023-04-27T18:27:51;100084.47;;;12.58;40.63
19594;BME280;9944;48.240;16.478;2023-04-27T18:31:56;100087.13;;;12.52;40.81
19594;BME280;9944;48.240;16.478;2023-04-27T18:36:02;100102.16;;;12.45;41.12
19594;BME280;9944;48.240;16.478;2023-04-27T18:40:08;100096.06;;;12.36;40.94
19594;BME280;9944;48.240;16.478;2023-04-27T18:44:11;100101.41;;;12.26;41.29
19594;BME280;9944;48.240;16.478;2023-04-27T18:48:16;100112.03;;;12.20;41.35
19594;BME280;9944;48.240;16.478;2023-04-27T18:52:19;100107.63;;;12.16;41.56
19594;BME280;9944;48.240;16.478;2023-04-27T18:56:24;100118.25;;;12.11;41.73
19594;BME280;9944;48.240;16.478;2023-04-27T19:00:27;100120.06;;;12.02;42.01
19594;BME280;9944;48.240;16.478;2023-04-27T19:08:35;100121.03;;;11.85;42.19
19594;BME280;9944;48.240;16.478;2023-04-27T19:12:39;100121.94;;;11.75;42.45
19594;BME280;9944;48.240;16.478;2023-04-27T19:16:42;100128.13;;;11.65;42.50
19594;BME280;9944;48.240;16.478;2023-04-27T19:20:46;100124.63;;;11.56;42.70
19594;BME280;9944;48.240;16.478;2023-04-27T19:24:50;100122.03;;;11.47;42.98
19594;BME280;9944;48.240;16.478;2023-04-27T19:28:55;100129.94;;;11.44;43.29
19594;BME280;9944;48.240;16.478;2023-04-27T19:32:58;100126.44;;;11.37;43.47
19594;BME280;9944;48.240;16.478;2023-04-27T19:37:04;100130.84;;;11.32;43.45
19594;BME280;9944;48.240;16.478;2023-04-27T19:41:18;100137.88;;;11.26;43.60
19594;BME280;9944;48.240;16.478;2023-04-27T19:45:23;100135.25;;;11.21;43.94
19594;BME280;9944;48.240;16.478;2023-04-27T19:49:29;100145.81;;;11.13;44.03
19594;BME280;9944;48.240;16.478;2023-04-27T19:53:33;100136.13;;;11.06;44.51
19594;BME280;9944;48.240;16.478;2023-04-27T19:57:36;100148.44;;;11.03;45.19
19594;BME280;9944;48.240;16.478;2023-04-27T20:01:40;100145.78;;;10.96;44.89
19594;BME280;9944;48.240;16.478;2023-04-27T20:05:44;100147.59;;;10.90;44.84
19594;BME280;9944;48.240;16.478;2023-04-27T20:09:48;100147.56;;;10.84;45.14
19594;BME280;9944;48.240;16.478;2023-04-27T20:13:51;100140.53;;;10.79;45.24
19594;BME280;9944;48.240;16.478;2023-04-27T20:17:55;100144.91;;;10.77;45.18
19594;BME280;9944;48.240;16.478;2023-04-27T20:21:58;100152.84;;;10.74;44.81
19594;BME280;9944;48.240;16.478;2023-04-27T20:26:03;100153.69;;;10.69;44.95
19594;BME280;9944;48.240;16.478;2023-04-27T20:30:08;100149.28;;;10.63;45.20
19594;BME280;9944;48.240;16.478;2023-04-27T20:34:12;100153.69;;;10.59;44.95
19594;BME280;9944;48.240;16.478;2023-04-27T20:38:16;100146.66;;;10.57;45.35
19594;BME280;9944;48.240;16.478;2023-04-27T20:42:19;100157.22;;;10.55;45.59
19594;BME280;9944;48.240;16.478;2023-04-27T20:46:22;100159.84;;;10.54;45.47
19594;BME280;9944;48.240;16.478;2023-04-27T20:50:27;100158.06;;;10.50;45.85
19594;BME280;9944;48.240;16.478;2023-04-27T20:54:30;100159.81;;;10.41;45.92
19594;BME280;9944;48.240;16.478;2023-04-27T20:58:33;100158.91;;;10.35;45.95
19594;BME280;9944;48.240;16.478;2023-04-27T21:02:36;100158.88;;;10.30;46.19
19594;BME280;9944;48.240;16.478;2023-04-27T21:06:41;100154.47;;;10.23;46.02
19594;BME280;9944;48.240;16.478;2023-04-27T21:10:44;100156.19;;;10.16;45.99
19594;BME280;9944;48.240;16.478;2023-04-27T21:14:47;100160.59;;;10.07;46.36
19594;BME280;9944;48.240;16.478;2023-04-27T21:18:50;100167.59;;;10.01;46.67
19594;BME280;9944;48.240;16.478;2023-04-27T21:22:54;100168.44;;;9.97;46.89
19594;BME280;9944;48.240;16.478;2023-04-27T21:26:58;100167.50;;;9.91;47.18